Time;durP1;ratioP1;P1;durP2;ratioP2;P2;SDS_P1;SDS_P2;PMS_P1;PMS_P2;Temp;Humidity;BMP_temperature;BMP_pressure;BME280_temperature;BME280_humidity;BME280_pressure;Samples;Min_cycle;Max_cycle;Signal;HPM_P1;HPM_P2
2022/11/17 00:00:22;;;;;;;32.78;3.92;;;12.10;99.90;;;;;;5090713;28;20103;-49
2022/11/17 00:02:48;;;;;;;20.88;3.17;;;12.10;99.90;;;;;;5083882;28;20032;-55
2022/11/17 00:05:14;;;;;;;32.60;3.80;;;12.00;99.90;;;;;;5091497;28;20027;-48
2022/11/17 00:07:41;;;;;;;20.23;2.97;;;12.00;99.90;;;;;;5059402;28;20055;-59
2022/11/17 00:10:07;;;;;;;22.23;2.92;;;11.90;99.90;;;;;;5091665;28;20073;-54
2022/11/17 00:15:16;;;;;;;23.88;3.17;;;11.90;99.90;;;;;;5091807;28;20031;-46
2022/11/17 00:17:42;;;;;;;17.00;1.88;;;11.90;99.90;;;;;;5090563;28;20028;-43
2022/11/17 00:22:54;;;;;;;24.33;2.65;;;11.80;99.90;;;;;;5091385;28;20545;-48
2022/11/17 00:25:19;;;;;;;21.80;3.20;;;11.80;99.90;;;;;;5091249;28;20016;-51
2022/11/17 00:27:45;;;;;;;22.23;2.47;;;11.80;99.90;;;;;;5081784;28;20035;-49
2022/11/17 00:34:03;;;;;;;18.63;2.47;;;11.80;99.90;;;;;;5089946;28;20074;-49
2022/11/17 00:35:50;;;;;;;21.80;3.10;;;11.80;99.90;;;;;;5091159;28;20054;-43
2022/11/17 00:38:16;;;;;;;18.75;3.20;;;11.70;99.90;;;;;;5091069;28;20055;-45
2022/11/17 00:40:42;;;;;;;17.10;2.53;;;11.70;99.90;;;;;;5091029;28;20055;-50
2022/11/17 00:43:07;;;;;;;22.23;2.67;;;11.70;99.90;;;;;;5090863;28;20047;-43
2022/11/17 00:45:33;;;;;;;23.42;2.72;;;11.70;99.90;;;;;;5090205;28;20024;-44
2022/11/17 00:47:58;;;;;;;18.27;2.70;;;11.60;99.90;;;;;;5090093;28;20008;-48
2022/11/17 00:50:24;;;;;;;18.15;2.58;;;11.60;99.90;;;;;;5085792;28;20028;-43
2022/11/17 00:52:50;;;;;;;14.00;2.47;;;11.50;99.90;;;;;;5090769;28;20020;-46
2022/11/17 00:55:15;;;;;;;19.58;2.45;;;11.50;99.90;;;;;;5090682;28;20051;-51
2022/11/17 00:57:41;;;;;;;25.55;2.58;;;11.50;99.90;;;;;;5090841;28;20031;-45
2022/11/17 01:00:07;;;;;;;27.80;3.28;;;11.40;99.90;;;;;;5090816;28;20036;-44
2022/11/17 01:02:33;;;;;;;26.15;3.08;;;11.40;99.90;;;;;;5090762;28;20153;-47
2022/11/17 01:04:59;;;;;;;17.27;2.30;;;11.30;99.90;;;;;;5090657;28;20357;-43
2022/11/17 01:07:24;;;;;;;26.17;2.50;;;11.30;99.90;;;;;;5078149;28;20040;-43
2022/11/17 01:09:50;;;;;;;24.23;3.70;;;11.20;99.90;;;;;;5094907;28;20035;-45
2022/11/17 01:12:16;;;;;;;16.08;2.47;;;11.10;99.90;;;;;;5094811;28;20077;-51
2022/11/17 01:14:41;;;;;;;18.80;2.20;;;11.10;99.90;;;;;;5094568;28;20054;-47
2022/11/17 01:17:07;;;;;;;25.35;2.75;;;11.20;99.90;;;;;;5094412;28;20020;-51
2022/11/17 01:19:32;;;;;;;27.73;3.13;;;11.30;99.90;;;;;;5094629;28;20036;-47
2022/11/17 01:21:58;;;;;;;23.65;3.72;;;11.30;99.90;;;;;;5094826;28;20028;-43
2022/11/17 01:24:24;;;;;;;23.83;2.75;;;11.30;99.90;;;;;;5094693;28;20157;-44
2022/11/17 01:26:50;;;;;;;23.90;3.35;;;11.40;99.90;;;;;;5094695;28;20380;-46
2022/11/17 01:29:16;;;;;;;25.98;2.58;;;11.40;99.90;;;;;;5094610;28;20061;-49
2022/11/17 01:31:43;;;;;;;24.90;2.63;;;11.40;99.90;;;;;;5094453;28;20016;-46
2022/11/17 01:34:09;;;;;;;24.52;3.13;;;11.40;99.90;;;;;;5076252;28;20036;-46
2022/11/17 01:39:24;;;;;;;25.25;2.40;;;11.50;99.90;;;;;;5094760;28;20502;-46
2022/11/17 01:41:51;;;;;;;23.40;2.80;;;11.50;99.90;;;;;;5094142;28;20030;-45
2022/11/17 01:44:35;;;;;;;28.23;3.22;;;11.60;99.90;;;;;;5094450;28;20028;-51
2022/11/17 01:47:12;;;;;;;37.92;4.13;;;11.70;99.90;;;;;;5093371;28;20103;-47
2022/11/17 01:49:38;;;;;;;29.00;2.95;;;11.60;99.90;;;;;;5092041;28;20024;-48
2022/11/17 01:52:09;;;;;;;27.88;4.45;;;11.70;99.90;;;;;;5091818;28;20028;-47
2022/11/17 01:54:39;;;;;;;23.83;2.88;;;11.70;99.90;;;;;;5086848;28;20062;-43
2022/11/17 01:57:12;;;;;;;15.02;3.15;;;11.70;99.90;;;;;;5090904;28;20477;-43
2022/11/17 01:59:44;;;;;;;26.48;3.80;;;11.70;99.90;;;;;;5094193;28;20042;-48
2022/11/17 02:02:10;;;;;;;22.13;3.05;;;11.70;99.90;;;;;;5087569;28;20020;-52
2022/11/17 02:04:48;;;;;;;22.73;3.58;;;11.70;99.90;;;;;;5093567;28;20373;-47
2022/11/17 02:07:25;;;;;;;16.40;3.00;;;11.70;99.90;;;;;;5081159;28;20060;-49
2022/11/17 02:09:54;;;;;;;16.77;3.72;;;11.60;99.90;;;;;;5079802;28;20495;-44
2022/11/17 02:12:21;;;;;;;14.50;3.55;;;11.40;99.90;;;;;;5093681;28;20036;-53
2022/11/17 02:14:49;;;;;;;14.10;4.10;;;11.30;99.90;;;;;;5091910;28;20561;-43
2022/11/17 02:17:15;;;;;;;15.60;5.30;;;11.10;99.90;;;;;;5085469;28;20028;-47
2022/11/17 02:19:43;;;;;;;15.52;5.80;;;10.90;99.90;;;;;;5093649;28;20028;-52
2022/11/17 02:22:22;;;;;;;18.20;7.72;;;10.80;99.90;;;;;;5093532;28;20085;-47
2022/11/17 02:25:13;;;;;;;17.38;9.20;;;10.70;99.90;;;;;;5093395;28;20468;-45
2022/11/17 02:28:30;;;;;;;14.65;8.63;;;10.60;99.90;;;;;;5093285;28;20032;-43
2022/11/17 02:31:10;;;;;;;16.23;10.02;;;10.50;99.90;;;;;;5055176;28;20067;-45
2022/11/17 02:33:57;;;;;;;17.20;7.70;;;10.40;99.90;;;;;;5092995;28;20477;-51
2022/11/17 02:36:42;;;;;;;14.68;6.90;;;10.40;99.90;;;;;;5093127;28;20120;-50
2022/11/17 02:39:10;;;;;;;9.70;5.50;;;10.30;99.90;;;;;;5093305;28;20020;-46
2022/11/17 02:41:57;;;;;;;9.00;5.07;;;10.10;99.90;;;;;;5093144;28;20077;-43
2022/11/17 02:44:35;;;;;;;6.63;3.63;;;10.00;99.90;;;;;;5093119;28;20020;-43
2022/11/17 02:47:11;;;;;;;7.75;3.08;;;9.90;99.90;;;;;;5087398;28;20502;-43
2022/11/17 02:49:42;;;;;;;5.07;2.35;;;9.90;99.90;;;;;;5092961;28;20039;-48
2022/11/17 02:52:08;;;;;;;3.28;1.70;;;9.80;99.90;;;;;;5092770;28;20389;-51
2022/11/17 02:54:34;;;;;;;2.50;1.20;;;9.70;99.90;;;;;;5092782;28;20059;-53
2022/11/17 02:56:59;;;;;;;2.65;1.10;;;9.60;99.90;;;;;;5092834;28;20055;-45
2022/11/17 02:59:33;;;;;;;1.90;1.00;;;9.60;99.90;;;;;;5092907;28;20074;-52
2022/11/17 03:02:44;;;;;;;1.92;0.70;;;9.60;99.90;;;;;;5092744;28;20023;-48
2022/11/17 03:05:21;;;;;;;1.00;0.60;;;9.50;99.90;;;;;;5077036;28;20119;-48
2022/11/17 03:08:05;;;;;;;2.90;0.50;;;9.40;99.90;;;;;;5078641;28;20069;-46
2022/11/17 03:10:55;;;;;;;0.95;0.40;;;9.30;99.90;;;;;;5074309;28;20440;-48
2022/11/17 03:13:23;;;;;;;2.30;0.40;;;9.30;99.90;;;;;;5092409;28;20180;-53
2022/11/17 03:16:12;;;;;;;1.17;0.40;;;9.20;99.90;;;;;;5092826;28;20053;-54
2022/11/17 03:18:43;;;;;;;1.00;0.40;;;9.20;99.90;;;;;;5080476;28;20024;-46
2022/11/17 03:21:27;;;;;;;0.30;0.30;;;9.20;99.90;;;;;;5090297;28;20020;-45
2022/11/17 03:24:05;;;;;;;0.65;0.30;;;9.10;99.90;;;;;;5092326;28;20028;-50
2022/11/17 03:26:39;;;;;;;0.80;0.35;;;9.10;99.90;;;;;;5092120;28;20396;-45
2022/11/17 03:29:09;;;;;;;1.05;0.35;;;9.10;99.90;;;;;;5091787;28;20028;-53
2022/11/17 03:31:37;;;;;;;0.30;0.30;;;9.10;99.90;;;;;;5091752;28;20027;-52
2022/11/17 03:34:08;;;;;;;2.15;0.45;;;9.10;99.90;;;;;;5092146;28;20040;-52
2022/11/17 03:36:38;;;;;;;1.00;0.40;;;9.10;99.90;;;;;;5091892;28;20036;-51
2022/11/17 03:39:35;;;;;;;1.45;0.50;;;9.00;99.90;;;;;;5092080;28;20499;-55
2022/11/17 03:42:06;;;;;;;0.40;0.40;;;9.00;99.90;;;;;;5077772;28;20107;-56
2022/11/17 03:44:37;;;;;;;1.33;0.80;;;9.10;99.90;;;;;;5091890;28;20031;-55
2022/11/17 03:47:05;;;;;;;0.82;0.60;;;9.00;99.90;;;;;;5091275;28;20035;-56
2022/11/17 03:49:40;;;;;;;0.37;0.30;;;9.10;99.90;;;;;;5092108;28;20020;-43
2022/11/17 03:52:06;;;;;;;1.55;0.45;;;9.00;99.90;;;;;;5091808;28;20586;-50
2022/11/17 03:54:33;;;;;;;1.10;0.50;;;9.00;99.90;;;;;;5091824;28;20173;-43
2022/11/17 03:57:34;;;;;;;0.43;0.43;;;9.00;99.90;;;;;;5091658;28;20068;-47
2022/11/17 04:00:10;;;;;;;0.50;0.40;;;9.00;99.90;;;;;;5078289;28;20447;-45
2022/11/17 04:02:38;;;;;;;1.20;0.57;;;9.00;99.90;;;;;;5091699;28;20028;-53
2022/11/17 04:05:04;;;;;;;0.65;0.65;;;9.00;99.90;;;;;;5091678;28;20028;-50
2022/11/17 04:07:35;;;;;;;0.70;0.50;;;9.00;99.90;;;;;;5091623;28;20361;-48
2022/11/17 04:10:01;;;;;;;0.40;0.40;;;9.00;99.90;;;;;;5091919;28;20074;-48
2022/11/17 04:17:56;;;;;;;0.98;0.60;;;9.00;99.90;;;;;;5085629;28;20043;-46
2022/11/17 04:20:22;;;;;;;1.52;0.68;;;9.00;99.90;;;;;;5091194;28;20032;-45
2022/11/17 04:23:05;;;;;;;1.60;0.70;;;9.00;99.90;;;;;;5091244;28;20088;-51
2022/11/17 04:28:36;;;;;;;2.28;1.10;;;9.00;99.90;;;;;;5091127;28;20032;-47
2022/11/17 04:31:16;;;;;;;5.72;1.13;;;9.00;99.90;;;;;;5091192;28;20110;-51
2022/11/17 04:33:43;;;;;;;3.65;1.27;;;9.00;99.90;;;;;;5091015;28;20111;-46
2022/11/17 04:36:10;;;;;;;2.75;1.40;;;9.00;99.90;;;;;;5090829;28;20040;-46
2022/11/17 04:38:39;;;;;;;2.85;1.17;;;9.10;99.90;;;;;;5091113;28;20100;-43
2022/11/17 04:43:52;;;;;;;3.75;1.17;;;9.10;99.90;;;;;;5079124;28;20439;-53
2022/11/17 04:46:19;;;;;;;3.35;1.58;;;9.10;99.90;;;;;;5090378;28;20035;-46
2022/11/17 04:48:46;;;;;;;2.80;1.50;;;9.00;99.90;;;;;;5072746;28;20070;-45
2022/11/17 04:51:12;;;;;;;2.60;1.40;;;9.00;99.90;;;;;;5090795;28;20020;-44
2022/11/17 04:53:38;;;;;;;4.13;1.70;;;9.00;99.90;;;;;;5090680;28;20484;-46
2022/11/17 04:56:04;;;;;;;5.65;1.90;;;9.00;99.90;;;;;;5090840;28;20028;-49
2022/11/17 04:58:30;;;;;;;4.03;1.42;;;9.00;99.90;;;;;;5090718;28;20054;-50
2022/11/17 05:01:11;;;;;;;3.50;1.60;;;9.10;99.90;;;;;;5090825;28;20397;-55
2022/11/17 05:03:44;;;;;;;3.55;1.50;;;9.10;99.90;;;;;;5090625;28;20115;-47
2022/11/17 05:06:13;;;;;;;4.38;1.40;;;9.00;99.90;;;;;;5090730;28;20480;-48
2022/11/17 05:08:40;;;;;;;4.10;1.48;;;9.00;99.90;;;;;;5090818;28;20032;-48
2022/11/17 05:13:51;;;;;;;3.75;1.58;;;9.00;99.90;;;;;;5090741;28;20047;-45
2022/11/17 05:19:04;;;;;;;4.70;1.90;;;9.00;99.90;;;;;;5081931;28;20039;-52
2022/11/17 05:21:30;;;;;;;3.08;1.70;;;9.00;99.90;;;;;;5090123;28;20073;-52
2022/11/17 05:23:56;;;;;;;4.57;1.90;;;8.90;99.90;;;;;;5090739;28;20035;-49
2022/11/17 05:26:25;;;;;;;4.35;1.50;;;9.00;99.90;;;;;;5090449;28;20013;-48
2022/11/17 05:28:51;;;;;;;3.25;1.50;;;9.00;99.90;;;;;;5090482;28;20032;-47
2022/11/17 05:31:17;;;;;;;4.10;1.73;;;8.90;99.90;;;;;;5090302;28;20016;-45
2022/11/17 05:33:43;;;;;;;5.65;1.42;;;9.00;99.90;;;;;;5090393;28;20373;-43
2022/11/17 05:36:09;;;;;;;2.50;1.40;;;8.90;99.90;;;;;;5090293;28;20051;-49
2022/11/17 05:38:35;;;;;;;4.63;1.60;;;8.90;99.90;;;;;;5090471;28;20051;-43
2022/11/17 05:41:01;;;;;;;6.07;1.50;;;8.90;99.90;;;;;;5090382;28;20051;-46
2022/11/17 05:43:26;;;;;;;3.20;1.40;;;8.90;99.90;;;;;;5090223;28;20407;-49
2022/11/17 05:45:52;;;;;;;3.53;1.30;;;8.90;99.90;;;;;;5090364;28;20027;-43
2022/11/17 05:48:18;;;;;;;5.22;1.40;;;8.90;99.90;;;;;;5090321;28;20096;-48
2022/11/17 05:50:44;;;;;;;4.38;1.23;;;8.90;99.90;;;;;;5089648;28;20545;-45
2022/11/17 05:53:09;;;;;;;2.90;1.10;;;8.90;99.90;;;;;;5079020;28;20040;-49
2022/11/17 05:55:35;;;;;;;1.40;0.80;;;8.90;99.90;;;;;;5094161;28;20032;-48
2022/11/17 05:58:07;;;;;;;3.70;0.95;;;8.90;99.90;;;;;;5094040;28;20020;-43
2022/11/17 06:00:35;;;;;;;1.35;0.90;;;8.90;99.90;;;;;;5094147;28;20027;-52
2022/11/17 06:03:06;;;;;;;4.90;1.00;;;8.90;99.90;;;;;;5094122;28;20245;-48
2022/11/17 06:05:32;;;;;;;4.90;1.00;;;8.90;99.90;;;;;;5058788;28;20024;-51
2022/11/17 06:07:58;;;;;;;1.83;0.88;;;8.90;99.90;;;;;;5093907;28;20020;-46
2022/11/17 06:10:24;;;;;;;5.13;1.10;;;8.90;99.90;;;;;;5093637;28;20020;-44
2022/11/17 06:12:50;;;;;;;2.22;0.90;;;8.90;99.90;;;;;;5093715;28;20217;-47
2022/11/17 06:15:16;;;;;;;4.72;0.90;;;8.90;99.90;;;;;;5093816;28;20443;-43
2022/11/17 06:17:52;;;;;;;1.23;0.68;;;8.90;99.90;;;;;;5093797;28;20501;-46
2022/11/17 06:20:26;;;;;;;3.58;1.10;;;8.90;99.90;;;;;;5093452;28;20032;-42
2022/11/17 06:22:55;;;;;;;3.25;0.93;;;8.90;99.90;;;;;;5090181;28;20035;-53
2022/11/17 06:25:21;;;;;;;4.85;0.88;;;8.90;99.90;;;;;;5081246;28;20028;-48
2022/11/17 06:27:49;;;;;;;2.47;0.85;;;8.80;99.90;;;;;;5091465;28;20063;-52
2022/11/17 06:30:15;;;;;;;3.85;0.90;;;8.80;99.90;;;;;;5093554;28;20035;-52
2022/11/17 06:32:42;;;;;;;1.30;0.60;;;8.80;99.90;;;;;;5080586;28;20029;-43
2022/11/17 06:35:10;;;;;;;2.55;0.60;;;8.70;99.90;;;;;;5079314;28;20044;-43
2022/11/17 06:37:35;;;;;;;3.13;0.60;;;8.70;99.90;;;;;;5092685;28;20058;-42
2022/11/17 06:40:01;;;;;;;1.40;0.70;;;8.70;99.90;;;;;;5092952;28;20024;-47
2022/11/17 06:45:11;;;;;;;2.67;0.65;;;8.70;99.90;;;;;;5093294;28;20435;-48
2022/11/17 06:47:37;;;;;;;5.22;0.90;;;8.70;99.90;;;;;;5093164;28;20024;-53
2022/11/17 06:50:03;;;;;;;2.53;0.70;;;8.60;99.90;;;;;;5092905;28;20099;-46
2022/11/17 06:52:28;;;;;;;2.33;0.80;;;8.60;99.90;;;;;;5092382;28;20024;-44
2022/11/17 06:54:54;;;;;;;2.20;0.60;;;8.60;99.90;;;;;;5092766;28;20059;-47
2022/11/17 06:57:20;;;;;;;4.35;0.80;;;8.60;99.90;;;;;;5092815;28;20389;-48
2022/11/17 06:59:45;;;;;;;1.88;0.63;;;8.60;99.90;;;;;;5093016;28;20076;-45
2022/11/17 07:02:11;;;;;;;2.35;0.60;;;8.50;99.90;;;;;;5092814;28;20019;-43
2022/11/17 07:04:37;;;;;;;2.85;0.60;;;8.60;99.90;;;;;;5092844;28;20054;-47
2022/11/17 07:07:02;;;;;;;3.08;0.75;;;8.60;99.90;;;;;;5092645;28;20047;-51
2022/11/17 07:09:28;;;;;;;2.35;0.60;;;8.60;99.90;;;;;;5092623;28;20039;-47
2022/11/17 07:11:53;;;;;;;4.13;0.80;;;8.60;99.90;;;;;;5092806;28;20373;-46
2022/11/17 07:14:19;;;;;;;3.10;0.80;;;8.60;99.90;;;;;;5092532;28;20130;-43
2022/11/17 07:16:45;;;;;;;3.15;0.90;;;8.60;99.90;;;;;;5092640;28;20020;-55
2022/11/17 07:19:11;;;;;;;2.85;0.75;;;8.60;99.90;;;;;;5092427;28;20476;-45
2022/11/17 07:21:37;;;;;;;4.03;0.80;;;8.60;99.90;;;;;;5091689;28;20020;-47
2022/11/17 07:24:03;;;;;;;4.65;1.35;;;8.60;99.90;;;;;;5092176;28;20039;-43
2022/11/17 07:26:29;;;;;;;4.65;1.70;;;8.60;99.90;;;;;;5092191;28;20099;-44
2022/11/17 07:28:54;;;;;;;4.10;1.08;;;8.60;99.90;;;;;;5092405;28;20024;-46
2022/11/17 07:31:20;;;;;;;3.90;0.95;;;8.60;99.90;;;;;;5091754;28;20012;-43
2022/11/17 07:33:46;;;;;;;2.22;0.80;;;8.70;99.90;;;;;;5092074;28;20043;-47
2022/11/17 07:36:15;;;;;;;3.35;0.93;;;8.70;99.90;;;;;;5092209;28;20400;-55
2022/11/17 07:38:41;;;;;;;2.60;0.95;;;8.70;99.90;;;;;;5092116;28;20119;-50
2022/11/17 07:41:09;;;;;;;3.70;1.20;;;8.70;99.90;;;;;;5092155;28;20035;-51
2022/11/17 07:43:35;;;;;;;2.97;1.05;;;8.70;99.90;;;;;;5091875;28;20024;-47
2022/11/17 07:46:10;;;;;;;5.85;1.48;;;8.70;99.90;;;;;;5091483;28;20585;-47
2022/11/17 07:48:35;;;;;;;7.35;1.58;;;8.70;99.90;;;;;;5091588;28;20043;-45
2022/11/17 07:51:03;;;;;;;5.60;1.92;;;8.80;99.90;;;;;;5084250;28;20471;-43
2022/11/17 07:53:30;;;;;;;4.50;1.83;;;8.80;99.90;;;;;;5086898;28;20186;-59
2022/11/17 07:55:56;;;;;;;8.63;2.45;;;8.90;99.90;;;;;;5069755;28;20406;-43
2022/11/17 07:58:24;;;;;;;5.75;2.28;;;8.80;99.90;;;;;;5089953;28;20024;-46
2022/11/17 08:00:50;;;;;;;6.57;2.20;;;8.90;99.90;;;;;;5084587;28;20326;-51
2022/11/17 08:03:15;;;;;;;6.20;1.80;;;8.90;99.90;;;;;;5072940;28;20465;-42
2022/11/17 08:05:41;;;;;;;5.93;2.10;;;9.00;99.90;;;;;;5077599;28;20033;-43
2022/11/17 08:08:07;;;;;;;3.95;1.77;;;9.00;99.90;;;;;;5075208;28;20024;-43
2022/11/17 08:10:33;;;;;;;6.25;1.85;;;9.00;99.90;;;;;;5087781;28;20024;-46
2022/11/17 08:12:59;;;;;;;5.25;1.83;;;9.10;99.90;;;;;;5078570;28;20028;-45
2022/11/17 08:15:29;;;;;;;6.40;1.90;;;9.10;99.90;;;;;;5090296;28;20028;-49
2022/11/17 08:17:55;;;;;;;;;;;9.20;99.90;;;;;;5091861;28;20031;-46
2022/11/17 08:20:22;;;;;;;8.38;1.73;;;9.20;99.90;;;;;;5089606;28;19962;-45
2022/11/17 08:22:49;;;;;;;5.68;1.80;;;9.20;99.90;;;;;;5090907;28;20519;-44
2022/11/17 08:25:15;;;;;;;6.57;2.10;;;9.30;99.90;;;;;;5090989;28;20024;-48
2022/11/17 08:27:40;;;;;;;6.07;1.95;;;9.30;99.90;;;;;;5090807;28;20399;-45
2022/11/17 08:30:08;;;;;;;6.22;1.73;;;9.40;99.90;;;;;;5091039;28;20039;-41
2022/11/17 08:32:34;;;;;;;5.32;1.50;;;9.40;99.90;;;;;;5090169;28;20093;-40
2022/11/17 08:35:02;;;;;;;6.68;1.70;;;9.40;99.90;;;;;;5072447;28;20032;-46
2022/11/17 08:37:28;;;;;;;6.78;1.65;;;9.40;99.90;;;;;;5071227;28;20029;-44
2022/11/17 08:39:54;;;;;;;7.00;2.00;;;9.40;99.90;;;;;;5075531;28;20089;-41
2022/11/17 08:42:19;;;;;;;2.75;1.40;;;9.40;99.90;;;;;;5072633;28;20013;-46
2022/11/17 08:44:45;;;;;;;4.88;1.50;;;9.50;99.90;;;;;;5074044;28;20040;-44
2022/11/17 08:47:11;;;;;;;7.57;1.75;;;9.50;99.90;;;;;;5077959;28;20024;-42
2022/11/17 08:49:36;;;;;;;8.45;2.03;;;9.60;99.90;;;;;;5090286;28;20016;-46
2022/11/17 08:52:02;;;;;;;7.22;2.15;;;9.60;99.90;;;;;;5083550;28;20101;-48
2022/11/17 08:54:27;;;;;;;4.22;1.60;;;9.70;99.90;;;;;;5082089;28;20036;-46
2022/11/17 08:56:57;;;;;;;6.85;2.00;;;9.80;99.90;;;;;;5090360;28;20028;-43
2022/11/17 08:59:23;;;;;;;;;;;9.80;99.90;;;;;;5080590;28;20047;-42
2022/11/17 09:01:49;;;;;;;2.80;1.60;;;9.90;99.90;;;;;;5088494;28;19915;-46
2022/11/17 09:04:14;;;;;;;6.38;1.90;;;9.90;99.90;;;;;;5088596;28;20018;-43
2022/11/17 09:06:40;;;;;;;2.83;1.42;;;10.00;99.90;;;;;;5089409;28;20434;-44
2022/11/17 09:09:05;;;;;;;5.07;1.77;;;10.10;99.90;;;;;;5089238;28;20095;-48
2022/11/17 09:11:31;;;;;;;4.55;1.90;;;10.20;99.90;;;;;;5088760;28;20020;-42
2022/11/17 09:13:57;;;;;;;5.30;1.75;;;10.30;99.90;;;;;;5089365;28;20044;-41
2022/11/17 09:16:24;;;;;;;4.43;1.95;;;10.40;99.90;;;;;;5089317;28;20026;-45
2022/11/17 09:18:54;;;;;;;5.28;1.83;;;10.40;99.90;;;;;;5089802;28;20530;-43
2022/11/17 09:21:20;;;;;;;6.00;1.88;;;10.60;99.90;;;;;;5088431;28;20091;-46
2022/11/17 09:23:45;;;;;;;7.35;1.90;;;10.70;99.90;;;;;;5089292;28;20059;-43
2022/11/17 09:26:13;;;;;;;4.97;1.80;;;11.10;99.90;;;;;;5088835;28;20020;-44
2022/11/17 09:28:39;;;;;;;4.13;1.60;;;11.50;99.90;;;;;;5091983;28;20016;-50
2022/11/17 09:31:09;;;;;;;4.28;1.40;;;12.00;99.90;;;;;;5094228;28;20386;-55
2022/11/17 09:33:35;;;;;;;3.55;1.40;;;12.60;99.90;;;;;;5085970;28;20032;-48
2022/11/17 09:36:01;;;;;;;5.28;1.48;;;12.60;99.90;;;;;;5093789;28;20040;-50
2022/11/17 09:38:26;;;;;;;4.45;1.45;;;12.40;99.90;;;;;;5094232;28;20081;-45
2022/11/17 09:40:54;;;;;;;5.28;1.40;;;12.00;99.90;;;;;;5093566;28;20437;-43
2022/11/17 09:43:27;;;;;;;4.28;2.00;;;12.20;99.90;;;;;;5093407;28;20040;-45
2022/11/17 09:46:02;;;;;;;4.47;1.38;;;12.50;99.90;;;;;;5093925;28;20050;-40
2022/11/17 09:48:42;;;;;;;4.43;1.20;;;13.20;99.90;;;;;;5081380;28;20028;-49
2022/11/17 09:51:13;;;;;;;3.25;1.10;;;13.70;99.90;;;;;;5083557;28;20016;-46
2022/11/17 09:53:50;;;;;;;4.57;1.50;;;14.00;99.90;;;;;;5091002;28;20028;-53
2022/11/17 09:56:16;;;;;;;3.75;1.42;;;13.60;99.90;;;;;;5091470;28;20043;-42
2022/11/17 09:59:12;;;;;;;2.88;1.17;;;13.40;99.90;;;;;;5092082;28;20808;-50
2022/11/17 10:01:38;;;;;;;2.97;1.00;;;13.10;99.90;;;;;;5044890;28;20587;-51
2022/11/17 10:04:10;;;;;;;2.80;1.10;;;13.20;99.90;;;;;;5090545;28;20100;-55
2022/11/17 10:06:36;;;;;;;2.28;1.10;;;13.60;99.90;;;;;;5091110;28;20023;-54
2022/11/17 10:09:29;;;;;;;3.75;1.35;;;14.40;99.90;;;;;;5089059;28;20059;-51
2022/11/17 10:12:11;;;;;;;5.72;1.05;;;15.20;99.90;;;;;;5091338;28;20081;-50
2022/11/17 10:14:39;;;;;;;2.05;1.00;;;16.50;99.90;;;;;;5091733;28;20067;-52
2022/11/17 10:17:05;;;;;;;2.47;0.90;;;17.50;99.90;;;;;;5092561;28;20085;-51
2022/11/17 10:19:32;;;;;;;2.75;1.00;;;18.20;99.90;;;;;;5093599;28;20016;-47
2022/11/17 10:22:01;;;;;;;2.70;1.00;;;18.10;99.90;;;;;;5093593;28;20028;-52
2022/11/17 10:24:36;;;;;;;3.78;0.85;;;18.30;99.90;;;;;;5075453;28;20020;-56
2022/11/17 10:27:04;;;;;;;3.45;0.90;;;18.20;99.80;;;;;;5093656;28;20020;-45
2022/11/17 10:29:30;;;;;;;4.70;0.80;;;18.60;99.50;;;;;;5093441;28;20040;-41
2022/11/17 10:31:56;;;;;;;2.92;1.00;;;19.20;97.80;;;;;;5092524;28;20036;-47
2022/11/17 10:34:36;;;;;;;2.85;0.90;;;18.10;98.10;;;;;;5092849;28;20024;-48
2022/11/17 10:37:14;;;;;;;5.65;1.33;;;18.00;99.20;;;;;;5092541;28;20124;-52
2022/11/17 10:39:41;;;;;;;3.53;1.15;;;18.60;97.20;;;;;;5088091;28;20563;-44
2022/11/17 10:42:19;;;;;;;5.00;1.15;;;18.90;97.50;;;;;;5091851;28;20036;-47
2022/11/17 10:44:51;;;;;;;3.40;0.93;;;18.20;96.10;;;;;;5092943;28;20103;-51
2022/11/17 10:47:35;;;;;;;3.38;0.90;;;17.20;98.30;;;;;;5093031;28;20035;-56
2022/11/17 10:50:21;;;;;;;2.85;1.00;;;17.50;98.80;;;;;;5092170;28;20158;-46
2022/11/17 10:52:49;;;;;;;2.78;1.00;;;18.40;97.50;;;;;;5090828;28;20028;-42
2022/11/17 10:55:30;;;;;;;4.30;1.08;;;18.90;95.40;;;;;;5075426;28;20036;-46
2022/11/17 10:58:27;;;;;;;7.55;1.30;;;19.10;95.40;;;;;;5076789;28;20029;-42
2022/11/17 11:00:58;;;;;;;4.60;0.88;;;18.40;96.10;;;;;;5080925;28;20027;-48
2022/11/17 11:03:30;;;;;;;3.45;1.00;;;18.40;95.20;;;;;;5075122;28;20056;-49
2022/11/17 11:05:58;;;;;;;4.00;0.80;;;17.30;96.70;;;;;;5073338;28;20573;-53
2022/11/17 11:08:32;;;;;;;2.67;1.05;;;16.30;98.60;;;;;;5086047;28;20017;-55
2022/11/17 11:10:58;;;;;;;2.47;0.80;;;15.60;99.90;;;;;;5072764;28;20028;-41
2022/11/17 11:13:33;;;;;;;4.20;1.00;;;15.50;99.90;;;;;;5077046;28;20329;-51
2022/11/17 11:15:58;;;;;;;3.65;0.98;;;15.60;99.90;;;;;;5077234;28;20097;-44
2022/11/17 11:18:28;;;;;;;2.17;0.90;;;15.30;99.90;;;;;;5085502;28;20416;-45
2022/11/17 11:21:04;;;;;;;3.15;1.02;;;14.80;99.90;;;;;;5090104;28;20073;-49
2022/11/17 11:23:35;;;;;;;3.75;1.23;;;14.20;99.90;;;;;;5074788;28;20024;-41
2022/11/17 11:26:26;;;;;;;3.88;1.20;;;13.80;99.90;;;;;;5078738;28;20027;-46
2022/11/17 11:28:58;;;;;;;5.38;1.02;;;13.60;99.90;;;;;;5088440;28;20032;-46
2022/11/17 11:31:51;;;;;;;1.92;1.00;;;13.30;99.90;;;;;;5077982;28;20012;-47
2022/11/17 11:34:32;;;;;;;3.38;1.00;;;13.00;99.90;;;;;;5074232;28;20493;-48
2022/11/17 11:37:15;;;;;;;5.18;1.05;;;12.90;99.90;;;;;;5084863;28;20055;-46
2022/11/17 11:39:47;;;;;;;2.80;1.10;;;12.80;99.90;;;;;;5072928;28;20548;-44
2022/11/17 11:43:11;;;;;;;4.25;1.00;;;12.70;99.90;;;;;;5071849;28;20032;-41
2022/11/17 11:46:04;;;;;;;2.88;0.98;;;12.90;99.90;;;;;;4986906;28;20038;-41
2022/11/17 11:48:34;;;;;;;7.38;1.15;;;12.90;99.90;;;;;;4989577;28;20038;-55
2022/11/17 11:51:19;;;;;;;4.68;1.20;;;13.30;99.90;;;;;;5048664;28;20120;-46
2022/11/17 11:53:45;;;;;;;2.63;1.05;;;14.00;99.90;;;;;;5072346;28;20055;-44
2022/11/17 11:56:39;;;;;;;4.25;1.27;;;14.40;99.90;;;;;;5085599;28;20020;-50
2022/11/17 11:59:10;;;;;;;4.38;1.20;;;15.20;99.90;;;;;;5086470;28;20039;-41
2022/11/17 12:01:59;;;;;;;3.63;1.02;;;16.10;99.90;;;;;;5090159;28;20012;-47
2022/11/17 12:04:29;;;;;;;3.40;1.10;;;16.60;99.60;;;;;;5088509;28;20052;-49
2022/11/17 12:07:10;;;;;;;2.65;1.08;;;17.30;98.50;;;;;;5080130;28;20107;-46
2022/11/17 12:09:55;;;;;;;4.35;1.10;;;17.70;96.60;;;;;;5072337;28;20036;-51
2022/11/17 12:12:34;;;;;;;3.13;1.15;;;17.30;96.10;;;;;;5073799;28;20009;-51
2022/11/17 12:15:18;;;;;;;3.65;1.33;;;16.40;97.10;;;;;;5071994;28;20086;-54
2022/11/17 12:17:50;;;;;;;3.42;1.15;;;15.50;98.60;;;;;;5068739;28;20388;-40
2022/11/17 12:20:37;;;;;;;3.08;1.30;;;15.10;99.50;;;;;;5084910;28;20024;-51
2022/11/17 12:23:09;;;;;;;2.35;0.98;;;14.80;99.90;;;;;;5079379;28;20023;-52
2022/11/17 12:25:42;;;;;;;6.13;1.40;;;14.70;99.90;;;;;;5086769;28;20031;-51
2022/11/17 12:28:30;;;;;;;3.13;1.10;;;14.90;99.90;;;;;;5087134;28;20096;-53
2022/11/17 12:31:05;;;;;;;3.78;1.10;;;15.10;99.80;;;;;;5090237;28;20043;-47
2022/11/17 12:33:52;;;;;;;4.57;1.10;;;15.40;99.10;;;;;;5087277;28;20024;-57
2022/11/17 12:36:25;;;;;;;1.48;0.80;;;15.60;99.30;;;;;;5087437;28;20086;-50
2022/11/17 12:38:55;;;;;;;2.95;1.13;;;16.10;98.60;;;;;;5090179;28;20062;-44
2022/11/17 12:41:39;;;;;;;;;;;15.90;97.70;;;;;;5090682;28;20031;-50
2022/11/17 12:44:40;;;;;;;2.78;1.10;;;15.50;98.20;;;;;;5090035;28;19908;-49
2022/11/17 12:47:20;;;;;;;5.07;1.08;;;15.70;98.00;;;;;;4965455;28;20031;-56
2022/11/17 12:50:05;;;;;;;3.35;0.85;;;16.30;97.60;;;;;;5077264;28;20392;-52
2022/11/17 12:52:42;;;;;;;3.15;1.23;;;16.50;96.60;;;;;;5089798;28;20082;-50
2022/11/17 12:55:11;;;;;;;4.40;1.13;;;17.00;96.60;;;;;;5089773;28;20051;-60
2022/11/17 12:57:37;;;;;;;1.83;0.70;;;18.00;94.80;;;;;;5086399;28;20461;-47
2022/11/17 13:00:24;;;;;;;3.67;0.90;;;17.80;94.40;;;;;;5090053;28;20077;-51
2022/11/17 13:03:09;;;;;;;3.33;0.80;;;17.20;94.00;;;;;;5077083;28;20107;-41
2022/11/17 13:05:35;;;;;;;3.22;1.00;;;16.20;96.40;;;;;;5089572;28;20465;-40
2022/11/17 13:08:13;;;;;;;1.60;0.80;;;16.00;96.00;;;;;;5090107;28;20136;-46
2022/11/17 13:10:40;;;;;;;2.53;0.90;;;15.20;96.90;;;;;;5089752;28;20059;-48
2022/11/17 13:13:10;;;;;;;4.03;0.70;;;15.10;97.60;;;;;;5083849;28;20025;-46
2022/11/17 13:15:36;;;;;;;4.35;1.10;;;15.80;96.30;;;;;;5088736;28;20051;-42
2022/11/17 13:18:16;;;;;;;4.45;0.90;;;16.40;96.50;;;;;;5089724;28;20099;-52
2022/11/17 13:20:47;;;;;;;3.28;0.75;;;17.10;95.60;;;;;;5087779;28;20067;-43
2022/11/17 13:23:32;;;;;;;3.08;0.80;;;16.80;95.40;;;;;;5088103;28;20434;-44
2022/11/17 13:26:34;;;;;;;1.13;0.60;;;17.20;95.30;;;;;;5089005;28;20032;-54
2022/11/17 13:29:17;;;;;;;4.07;0.88;;;17.50;94.20;;;;;;5087987;28;20360;-46
2022/11/17 13:31:42;;;;;;;4.07;0.90;;;17.30;93.90;;;;;;5081353;28;20111;-41
2022/11/17 13:34:11;;;;;;;2.78;1.05;;;17.10;94.10;;;;;;5089513;28;20139;-42
2022/11/17 13:36:55;;;;;;;3.30;0.90;;;17.20;93.60;;;;;;5087580;28;20101;-51
2022/11/17 13:39:21;;;;;;;5.30;1.05;;;17.20;94.50;;;;;;5088472;28;20272;-44
2022/11/17 13:41:47;;;;;;;2.38;0.93;;;17.20;93.70;;;;;;5089704;28;20028;-48